createdAt,value
2019-04-20T00:00:42.941Z,8.506025
2019-04-20T00:01:45.310Z,8.506024
2019-04-20T00:02:53.209Z,8.505992
2019-04-20T00:03:56.356Z,8.505999
2019-04-20T00:04:59.297Z,8.505994
2019-04-20T00:06:03.425Z,8.506015
2019-04-20T00:07:06.258Z,8.505986
2019-04-20T00:08:19.227Z,8.506004
2019-04-20T00:09:24.020Z,8.506044
2019-04-20T00:10:27.365Z,8.505956
2019-04-20T00:11:45.886Z,8.505976
2019-04-20T00:12:53.616Z,8.505947
2019-04-20T00:13:55.210Z,8.505956
2019-04-20T00:14:56.499Z,8.506020
2019-04-20T00:15:58.305Z,8.506012
2019-04-20T00:17:01.290Z,8.506090
2019-04-20T00:18:06.694Z,8.506113
2019-04-20T00:19:15.293Z,8.506013
2019-04-20T00:20:25.956Z,8.506007
2019-04-20T00:21:27.293Z,8.506005
2019-04-20T00:22:38.217Z,8.505992
2019-04-20T00:23:43.071Z,8.506051
2019-04-20T00:24:49.649Z,8.506086
2019-04-20T00:26:05.678Z,8.506042
2019-04-20T00:27:28.464Z,8.505992
2019-04-20T00:28:31.607Z,8.505988
2019-04-20T00:29:36.696Z,8.505971
2019-04-20T00:30:48.039Z,8.505943
2019-04-20T00:31:45.945Z,8.506032
2019-04-20T00:32:55.537Z,8.506065
2019-04-20T00:33:59.359Z,8.506149
2019-04-20T00:34:58.302Z,8.506093
2019-04-20T00:36:01.284Z,8.506114
2019-04-20T00:37:05.348Z,8.506127
2019-04-20T00:38:10.293Z,8.506072
2019-04-20T00:39:15.114Z,8.506075
2019-04-20T00:40:21.280Z,8.506107
2019-04-20T00:41:25.720Z,8.506153
2019-04-20T00:42:36.687Z,8.506118
2019-04-20T00:43:39.102Z,8.506131
2019-04-20T00:44:49.593Z,8.506017
2019-04-20T00:46:02.000Z,8.506021
2019-04-20T00:47:14.222Z,8.505990
2019-04-20T00:48:22.669Z,8.505894
2019-04-20T00:49:30.622Z,8.506032
2019-04-20T00:50:40.404Z,8.506048
2019-04-20T00:51:51.148Z,8.506046
2019-04-20T00:52:54.214Z,8.506051
2019-04-20T00:53:51.861Z,8.506018
2019-04-20T00:54:56.273Z,8.506041
2019-04-20T00:55:59.321Z,8.506062
2019-04-20T00:57:13.492Z,8.506012
2019-04-20T00:58:19.308Z,8.506042
2019-04-20T00:59:32.333Z,8.506030
2019-04-20T01:00:40.733Z,8.506021
2019-04-20T01:01:52.348Z,8.506058
2019-04-20T01:02:55.526Z,8.506056
2019-04-20T01:04:10.733Z,8.506007
2019-04-20T01:06:24.813Z,8.505984
2019-04-20T01:07:29.085Z,8.506042
2019-04-20T01:08:23.355Z,8.506032
2019-04-20T01:09:26.523Z,8.506057
2019-04-20T01:10:37.205Z,8.506066
2019-04-20T01:11:42.250Z,8.506036
2019-04-20T01:12:45.847Z,8.506042
2019-04-20T01:13:55.388Z,8.505998
2019-04-20T01:15:02.743Z,8.506003
2019-04-20T01:16:19.491Z,8.505988
2019-04-20T01:17:14.310Z,8.505973
2019-04-20T01:18:17.303Z,8.505897
2019-04-20T01:19:20.570Z,8.505943
2019-04-20T01:20:26.551Z,8.505960
2019-04-20T01:21:33.430Z,8.505977
2019-04-20T01:22:44.637Z,8.505979
2019-04-20T01:23:52.639Z,8.505990
2019-04-20T01:24:54.611Z,8.505958
2019-04-20T01:26:03.958Z,8.505965
2019-04-20T01:27:16.752Z,8.505994
2019-04-20T01:28:35.461Z,8.505979
2019-04-20T01:29:32.381Z,8.505935
2019-04-20T01:30:35.964Z,8.505982
2019-04-20T01:31:52.703Z,8.505965
2019-04-20T01:33:00.764Z,8.505942
2019-04-20T01:34:03.046Z,8.505923
2019-04-20T01:35:14.728Z,8.505954
2019-04-20T01:36:34.960Z,8.505912
2019-04-20T01:37:32.792Z,8.505915
2019-04-20T01:38:45.040Z,8.505945
2019-04-20T01:39:43.109Z,8.505950
2019-04-20T01:40:44.428Z,8.505979
2019-04-20T01:41:47.690Z,8.505976
2019-04-20T01:42:51.202Z,8.505934
2019-04-20T01:43:54.453Z,8.505978
2019-04-20T01:44:58.708Z,8.505993
2019-04-20T01:46:11.314Z,8.505985
2019-04-20T01:47:12.068Z,8.505961
2019-04-20T01:48:24.959Z,8.505977
2019-04-20T01:49:28.638Z,8.505968
2019-04-20T01:50:35.345Z,8.505950
2019-04-20T01:51:53.813Z,8.506011
2019-04-20T01:52:58.263Z,8.506071
2019-04-20T01:54:12.018Z,8.505998
2019-04-20T01:55:24.851Z,8.506002
2019-04-20T01:56:30.249Z,8.505994
2019-04-20T01:57:25.977Z,8.505981
2019-04-20T01:58:50.592Z,8.506013
2019-04-20T01:59:49.338Z,8.506028
2019-04-20T02:00:45.947Z,8.506024
2019-04-20T02:01:55.757Z,8.506058
2019-04-20T02:03:01.942Z,8.506036
2019-04-20T02:04:07.330Z,8.506002
2019-04-20T02:05:20.588Z,8.506006
2019-04-20T02:06:25.071Z,8.505959
2019-04-20T02:07:36.703Z,8.505975
2019-04-20T02:08:38.310Z,8.506035
2019-04-20T02:09:47.483Z,8.506121
2019-04-20T02:10:54.369Z,8.506060
2019-04-20T02:12:06.902Z,8.505998
2019-04-20T02:13:06.682Z,8.506010
2019-04-20T02:14:13.438Z,8.506030
2019-04-20T02:15:28.127Z,8.506024
2019-04-20T02:16:33.606Z,8.506042
2019-04-20T02:17:40.752Z,8.506047
2019-04-20T02:18:58.729Z,8.506055
2019-04-20T02:20:10.450Z,8.506064
2019-04-20T02:21:16.582Z,8.506042
2019-04-20T02:22:15.719Z,8.506002
2019-04-20T02:23:25.371Z,8.505929
2019-04-20T02:24:21.676Z,8.505940
2019-04-20T02:25:24.955Z,8.506004
2019-04-20T02:26:28.320Z,8.505906
2019-04-20T02:27:38.646Z,8.506013
2019-04-20T02:29:06.033Z,8.506025
2019-04-20T02:30:14.166Z,8.506084
2019-04-20T02:31:34.914Z,8.506021
2019-04-20T02:32:40.267Z,8.505995
2019-04-20T02:33:59.305Z,8.505932
2019-04-20T02:36:11.033Z,8.506034
2019-04-20T02:38:22.593Z,8.506024
2019-04-20T02:40:38.846Z,8.506067
2019-04-20T02:41:47.737Z,8.506016
2019-04-20T02:42:51.585Z,8.506028
2019-04-20T02:44:06.016Z,8.506055
2019-04-20T02:45:13.020Z,8.506052
2019-04-20T02:46:12.322Z,8.506026
2019-04-20T02:47:21.413Z,8.506033
2019-04-20T02:48:25.268Z,8.506043
2019-04-20T02:49:42.076Z,8.505982
2019-04-20T02:50:43.260Z,8.505926
2019-04-20T02:53:06.082Z,8.506088
2019-04-20T02:55:14.450Z,8.506070
2019-04-20T02:58:41.562Z,8.506072
2019-04-20T02:59:59.547Z,8.506072
2019-04-20T03:00:44.792Z,8.506081
2019-04-20T03:01:52.167Z,8.506124
2019-04-20T03:02:52.871Z,8.506168
2019-04-20T03:03:52.623Z,8.506171
2019-04-20T03:05:06.727Z,8.506119
2019-04-20T03:06:18.478Z,8.506196
2019-04-20T03:07:23.951Z,8.506145
2019-04-20T03:08:38.223Z,8.506131
2019-04-20T03:09:46.988Z,8.506186
2019-04-20T03:11:00.773Z,8.506128
2019-04-20T03:12:23.835Z,8.506127
2019-04-20T03:13:16.737Z,8.506215
2019-04-20T03:14:18.564Z,8.506134
2019-04-20T03:15:30.203Z,8.506087
2019-04-20T03:16:32.415Z,8.506118
2019-04-20T03:17:46.430Z,8.506017
2019-04-20T03:18:51.205Z,8.505993
2019-04-20T03:19:54.992Z,8.505962
2019-04-20T03:21:12.734Z,8.506005
2019-04-20T03:22:23.622Z,8.505996
2019-04-20T03:23:30.053Z,8.506016
2019-04-20T03:24:38.812Z,8.505884
2019-04-20T03:25:43.076Z,8.505997
2019-04-20T03:26:40.812Z,8.506028
2019-04-20T03:27:51.638Z,8.506006
2019-04-20T03:30:42.408Z,8.505941
2019-04-20T03:35:00.591Z,8.506041
2019-04-20T03:36:01.935Z,8.506004
2019-04-20T03:37:08.488Z,8.505961
2019-04-20T03:38:00.160Z,8.505955
2019-04-20T03:39:16.767Z,8.505985
2019-04-20T03:40:17.607Z,8.506039
2019-04-20T03:41:19.553Z,8.505990
2019-04-20T03:42:20.185Z,8.505964
2019-04-20T03:43:24.446Z,8.506021
2019-04-20T03:44:30.702Z,8.506049
2019-04-20T03:45:42.702Z,8.506083
2019-04-20T03:46:51.802Z,8.506028
2019-04-20T03:48:03.043Z,8.506004
2019-04-20T03:49:21.357Z,8.506017
2019-04-20T03:50:31.925Z,8.506046
2019-04-20T03:51:45.346Z,8.506052
2019-04-20T03:52:43.628Z,8.506057
2019-04-20T03:53:50.326Z,8.506028
2019-04-20T03:54:51.366Z,8.506051
2019-04-20T03:56:02.216Z,8.505950
2019-04-20T03:57:24.777Z,8.505926
2019-04-20T03:58:24.217Z,8.505975
2019-04-20T03:59:27.657Z,8.505956
2019-04-20T04:00:36.205Z,8.506048
2019-04-20T04:02:08.746Z,8.505924
2019-04-20T04:03:09.387Z,8.505974
2019-04-20T04:04:12.159Z,8.506063
2019-04-20T04:05:09.457Z,8.506123
2019-04-20T04:06:09.616Z,8.506125
2019-04-20T04:07:18.510Z,8.506018
2019-04-20T04:08:26.686Z,8.505970
2019-04-20T04:09:32.634Z,8.505990
2019-04-20T04:10:50.507Z,8.505979
2019-04-20T04:11:56.030Z,8.506025
2019-04-20T04:12:49.742Z,8.506020
2019-04-20T04:13:54.599Z,8.506045
2019-04-20T04:14:56.324Z,8.505973
2019-04-20T04:16:04.425Z,8.506032
2019-04-20T04:17:07.455Z,8.506005
2019-04-20T04:18:17.835Z,8.506077
2019-04-20T04:19:25.478Z,8.506024
2019-04-20T04:20:34.380Z,8.506000
2019-04-20T04:21:49.842Z,8.506043
2019-04-20T04:23:00.113Z,8.506010
2019-04-20T04:24:05.515Z,8.506049
2019-04-20T04:25:15.008Z,8.505969
2019-04-20T04:26:27.441Z,8.505979
2019-04-20T04:27:38.559Z,8.506029
2019-04-20T04:28:41.139Z,8.506035
2019-04-20T04:29:51.279Z,8.506008
2019-04-20T04:30:59.937Z,8.506025
2019-04-20T04:32:17.299Z,8.506053
2019-04-20T04:34:22.937Z,8.506001
2019-04-20T04:35:24.423Z,8.506119
2019-04-20T04:36:35.915Z,8.506075
2019-04-20T04:37:45.925Z,8.506005
2019-04-20T04:38:58.874Z,8.506044
2019-04-20T04:40:14.875Z,8.506045
2019-04-20T04:41:13.638Z,8.506126
2019-04-20T04:42:25.117Z,8.506111
2019-04-20T04:43:26.732Z,8.506074
2019-04-20T04:44:30.231Z,8.506028
2019-04-20T04:45:26.541Z,8.506009
2019-04-20T04:46:33.895Z,8.506022
2019-04-20T04:47:39.306Z,8.505952
2019-04-20T04:48:45.978Z,8.506078
2019-04-20T04:50:01.054Z,8.506090
2019-04-20T04:51:03.843Z,8.505938
2019-04-20T04:52:11.161Z,8.505965
2019-04-20T04:53:27.175Z,8.505925
2019-04-20T04:54:34.051Z,8.505969
2019-04-20T04:55:41.767Z,8.506127
2019-04-20T04:56:39.626Z,8.505940
2019-04-20T04:57:43.244Z,8.506040
2019-04-20T04:58:46.756Z,8.506039
2019-04-20T04:59:50.821Z,8.506056
2019-04-20T05:01:03.761Z,8.505970
2019-04-20T05:02:03.410Z,8.506011
2019-04-20T05:03:23.422Z,8.506041
2019-04-20T05:04:33.937Z,8.506045
2019-04-20T05:05:41.360Z,8.506027
2019-04-20T05:06:46.996Z,8.506084
2019-04-20T05:07:52.169Z,8.506131
2019-04-20T05:08:51.378Z,8.506044
2019-04-20T05:09:54.873Z,8.506015
2019-04-20T05:10:58.343Z,8.506091
2019-04-20T05:12:07.209Z,8.506135
2019-04-20T05:13:09.311Z,8.506055
2019-04-20T05:14:20.284Z,8.506075
2019-04-20T05:15:33.671Z,8.506116
2019-04-20T05:16:45.090Z,8.506023
2019-04-20T05:18:00.210Z,8.505998
2019-04-20T05:19:10.484Z,8.505997
2019-04-20T05:20:09.280Z,8.506315
2019-04-20T05:21:24.496Z,8.506022
2019-04-20T05:22:35.149Z,8.506051
2019-04-20T05:23:28.025Z,8.506119
2019-04-20T05:24:41.402Z,8.506116
2019-04-20T05:25:57.081Z,8.505954
2019-04-20T05:27:01.899Z,8.506114
2019-04-20T05:28:08.198Z,8.505997
2019-04-20T05:29:06.764Z,8.505964
2019-04-20T05:30:05.571Z,8.505914
2019-04-20T05:31:10.230Z,8.505923
2019-04-20T05:32:18.545Z,8.505964
2019-04-20T05:33:34.177Z,8.506022
2019-04-20T05:34:54.094Z,8.505992
2019-04-20T05:36:01.860Z,8.506019
2019-04-20T05:37:17.708Z,8.506017
2019-04-20T05:38:23.075Z,8.505969
2019-04-20T05:39:27.745Z,8.505938
2019-04-20T05:40:35.229Z,8.505959
2019-04-20T05:41:38.331Z,8.505971
2019-04-20T05:42:48.662Z,8.505987
2019-04-20T05:43:50.570Z,8.505937
2019-04-20T05:45:01.883Z,8.505933
2019-04-20T05:46:06.251Z,8.505963
2019-04-20T05:47:18.085Z,8.506023
2019-04-20T05:48:20.513Z,8.506031
2019-04-20T05:49:34.515Z,8.505997
2019-04-20T05:50:42.382Z,8.506009
2019-04-20T05:51:47.718Z,8.506050
2019-04-20T05:53:01.676Z,8.506113
2019-04-20T05:54:11.957Z,8.506108
2019-04-20T05:55:16.181Z,8.506023
2019-04-20T05:56:29.346Z,8.506020
2019-04-20T05:57:34.948Z,8.506006
2019-04-20T05:58:38.787Z,8.506041
2019-04-20T05:59:51.377Z,8.506058
2019-04-20T06:01:01.621Z,8.506009
2019-04-20T06:02:08.034Z,8.506024
2019-04-20T06:03:05.673Z,8.506090
2019-04-20T06:04:30.217Z,8.506068
2019-04-20T06:05:28.726Z,8.506090
2019-04-20T06:06:37.681Z,8.506098
2019-04-20T06:07:42.407Z,8.506091
2019-04-20T06:08:56.627Z,8.506087
2019-04-20T06:09:59.682Z,8.506075
2019-04-20T06:11:07.985Z,8.506068
2019-04-20T06:12:19.847Z,8.506057
2019-04-20T06:13:17.791Z,8.506120
2019-04-20T06:14:17.203Z,8.506101
2019-04-20T06:15:42.079Z,8.506088
2019-04-20T06:16:52.776Z,8.506058
2019-04-20T06:17:53.180Z,8.506144
2019-04-20T06:19:18.260Z,8.506126
2019-04-20T06:20:12.748Z,8.506010
2019-04-20T06:21:26.577Z,8.506037
2019-04-20T06:22:31.022Z,8.506084
2019-04-20T06:23:41.529Z,8.506106
2019-04-20T06:24:53.110Z,8.506010
2019-04-20T06:26:03.837Z,8.505990
2019-04-20T06:27:00.826Z,8.506030
2019-04-20T06:28:06.653Z,8.506030
2019-04-20T06:29:16.433Z,8.506070
2019-04-20T06:30:20.896Z,8.506090
2019-04-20T06:31:32.476Z,8.506107
2019-04-20T06:32:40.385Z,8.506111
2019-04-20T06:34:01.478Z,8.506109
2019-04-20T06:34:53.507Z,8.506217
2019-04-20T06:36:14.021Z,8.506113
2019-04-20T06:37:09.872Z,8.506097
2019-04-20T06:38:38.324Z,8.506120
2019-04-20T06:40:59.361Z,8.506064
2019-04-20T06:42:02.250Z,8.506131
2019-04-20T06:42:53.483Z,8.506166
2019-04-20T06:44:03.841Z,8.506135
2019-04-20T06:45:16.221Z,8.506127
2019-04-20T06:46:14.833Z,8.506115
2019-04-20T06:47:27.300Z,8.506020
2019-04-20T06:48:41.372Z,8.506114
2019-04-20T06:49:55.090Z,8.506075
2019-04-20T06:50:44.747Z,8.506179
2019-04-20T06:51:59.324Z,8.506107
2019-04-20T06:53:12.935Z,8.505996
2019-04-20T06:54:05.497Z,8.506039
2019-04-20T06:55:14.250Z,8.506017
2019-04-20T06:56:33.632Z,8.506016
2019-04-20T06:57:36.821Z,8.506012
2019-04-20T06:58:54.474Z,8.506091
2019-04-20T06:59:58.016Z,8.506042
2019-04-20T07:01:03.689Z,8.506089
2019-04-20T07:02:17.278Z,8.506100
2019-04-20T07:03:30.976Z,8.506049
2019-04-20T07:04:38.765Z,8.506061
2019-04-20T07:05:34.681Z,8.506030
2019-04-20T07:09:00.565Z,8.506047
2019-04-20T07:11:19.482Z,8.506074
2019-04-20T07:12:17.194Z,8.506037
2019-04-20T07:13:17.658Z,8.506040
2019-04-20T07:14:28.944Z,8.506040
2019-04-20T07:15:42.747Z,8.506044
2019-04-20T07:16:53.179Z,8.505963
2019-04-20T07:18:06.132Z,8.506006
2019-04-20T07:19:07.882Z,8.506039
2019-04-20T07:20:12.840Z,8.506081
2019-04-20T07:21:37.519Z,8.505984
2019-04-20T07:23:42.290Z,8.506029
2019-04-20T07:24:59.291Z,8.506002
2019-04-20T07:26:02.314Z,8.505991
2019-04-20T07:27:10.380Z,8.506030
2019-04-20T07:28:24.152Z,8.506057
2019-04-20T07:29:26.961Z,8.506047
2019-04-20T07:30:33.454Z,8.506035
2019-04-20T07:31:38.025Z,8.505990
2019-04-20T07:32:52.525Z,8.506010
2019-04-20T07:33:52.105Z,8.506009
2019-04-20T07:35:03.062Z,8.506069
2019-04-20T07:36:15.431Z,8.506069
2019-04-20T07:38:36.584Z,8.505819
2019-04-20T07:39:37.312Z,8.505856
2019-04-20T07:40:38.189Z,8.505906
2019-04-20T07:41:57.257Z,8.505903
2019-04-20T07:42:55.364Z,8.505980
2019-04-20T07:44:28.091Z,8.505904
2019-04-20T07:45:16.952Z,8.505771
2019-04-20T07:46:37.556Z,8.505853
2019-04-20T07:47:34.465Z,8.505898
2019-04-20T07:48:39.528Z,8.505956
2019-04-20T07:49:41.624Z,8.505948
2019-04-20T07:50:44.883Z,8.506011
2019-04-20T07:51:43.867Z,8.505900
2019-04-20T07:53:07.449Z,8.505894
2019-04-20T07:54:24.704Z,8.506012
2019-04-20T07:56:39.388Z,8.506011
2019-04-20T07:57:40.497Z,8.506097
2019-04-20T07:58:40.103Z,8.506011
2019-04-20T07:59:59.079Z,8.506046
2019-04-20T08:01:19.665Z,8.506029
2019-04-20T08:02:28.981Z,8.505987
2019-04-20T08:03:29.366Z,8.505976
2019-04-20T08:04:30.053Z,8.506053
2019-04-20T08:05:31.124Z,8.505998
2019-04-20T08:06:36.889Z,8.505983
2019-04-20T08:07:44.752Z,8.506036
2019-04-20T08:08:58.668Z,8.505950
2019-04-20T08:09:58.472Z,8.506011
2019-04-20T08:11:16.430Z,8.506069
2019-04-20T08:12:34.086Z,8.506098
2019-04-20T08:13:42.094Z,8.506104
2019-04-20T08:14:44.453Z,8.506076
2019-04-20T08:18:07.053Z,8.506047
2019-04-20T08:19:12.281Z,8.506060
2019-04-20T08:20:23.317Z,8.506032
2019-04-20T08:21:28.593Z,8.506040
2019-04-20T08:22:42.079Z,8.506022
2019-04-20T08:23:44.088Z,8.506017
2019-04-20T08:24:48.778Z,8.506067
2019-04-20T08:25:56.076Z,8.506032
2019-04-20T08:26:55.885Z,8.505972
2019-04-20T08:27:59.108Z,8.506002
2019-04-20T08:29:09.186Z,8.505971
2019-04-20T08:30:32.307Z,8.505972
2019-04-20T08:31:33.494Z,8.505981
2019-04-20T08:32:45.220Z,8.506087
2019-04-20T08:34:07.778Z,8.506045
2019-04-20T08:35:10.473Z,8.506003
2019-04-20T08:36:10.803Z,8.506040
2019-04-20T08:37:17.467Z,8.506065
2019-04-20T08:39:46.365Z,8.505957
2019-04-20T08:40:45.807Z,8.506043
2019-04-20T08:41:58.893Z,8.505989
2019-04-20T08:43:11.204Z,8.506002
2019-04-20T08:44:21.429Z,8.506048
2019-04-20T08:45:16.767Z,8.506002
2019-04-20T08:46:20.615Z,8.505982
2019-04-20T08:47:38.195Z,8.505979
2019-04-20T08:48:43.571Z,8.506009
2019-04-20T08:49:49.179Z,8.505991
2019-04-20T08:50:58.439Z,8.506034
2019-04-20T08:52:12.840Z,8.506040
2019-04-20T08:54:16.456Z,8.506080
2019-04-20T08:55:23.390Z,8.506061
2019-04-20T08:56:24.608Z,8.506030
2019-04-20T08:57:22.612Z,8.506001
2019-04-20T08:58:25.296Z,8.506078
2019-04-20T08:59:27.318Z,8.506058
2019-04-20T09:00:38.328Z,8.506060
2019-04-20T09:01:39.438Z,8.506048
2019-04-20T09:02:48.906Z,8.506065
2019-04-20T09:04:03.523Z,8.506030
2019-04-20T09:05:04.919Z,8.506105
2019-04-20T09:06:24.959Z,8.506127
2019-04-20T09:07:22.580Z,8.506025
2019-04-20T09:08:29.848Z,8.506060
2019-04-20T09:09:55.813Z,8.506090
2019-04-20T09:11:00.030Z,8.506090
2019-04-20T09:12:07.584Z,8.506083
2019-04-20T09:13:08.336Z,8.506042
2019-04-20T09:14:05.909Z,8.506038
2019-04-20T09:15:10.572Z,8.506068
2019-04-20T09:16:13.329Z,8.506091
2019-04-20T09:17:24.338Z,8.506054
2019-04-20T09:18:31.292Z,8.506038
2019-04-20T09:19:42.760Z,8.506051
2019-04-20T09:20:50.711Z,8.506109
2019-04-20T09:21:55.147Z,8.506092
2019-04-20T09:23:14.573Z,8.506057
2019-04-20T09:24:32.982Z,8.506085
2019-04-20T09:25:48.393Z,8.506107
2019-04-20T09:26:42.292Z,8.506100
2019-04-20T09:27:38.411Z,8.506102
2019-04-20T09:28:48.000Z,8.506130
2019-04-20T09:30:03.333Z,8.506127
2019-04-20T09:31:11.944Z,8.506169
2019-04-20T09:32:16.914Z,8.506179
2019-04-20T09:33:28.896Z,8.506159
2019-04-20T09:34:41.886Z,8.506171
2019-04-20T09:35:42.923Z,8.506172
2019-04-20T09:36:48.399Z,8.506220
2019-04-20T09:38:01.808Z,8.506129
2019-04-20T09:39:01.175Z,8.506200
2019-04-20T09:40:15.867Z,8.506168
2019-04-20T09:41:35.346Z,8.506328
2019-04-20T09:42:14.312Z,8.506235
2019-04-20T09:43:18.547Z,8.506196
2019-04-20T09:44:25.635Z,8.506096
2019-04-20T09:45:37.354Z,8.506158
2019-04-20T09:46:44.390Z,8.506145
2019-04-20T09:47:51.187Z,8.506084
2019-04-20T09:48:59.012Z,8.506046
2019-04-20T09:50:20.946Z,8.506009
2019-04-20T09:51:30.204Z,8.505888
2019-04-20T09:52:32.201Z,8.506099
2019-04-20T09:53:39.389Z,8.506113
2019-04-20T09:54:45.969Z,8.505967
2019-04-20T09:55:59.490Z,8.505973
2019-04-20T09:57:09.117Z,8.505954
2019-04-20T09:58:12.311Z,8.505950
2019-04-20T09:59:22.038Z,8.505914
2019-04-20T10:00:28.906Z,8.505949
2019-04-20T10:01:31.235Z,8.506041
2019-04-20T10:02:34.472Z,8.506142
2019-04-20T10:03:38.818Z,8.506048
2019-04-20T10:04:42.289Z,8.506090
2019-04-20T10:05:45.483Z,8.506155
2019-04-20T10:06:49.613Z,8.506056
2019-04-20T10:07:56.912Z,8.506027
2019-04-20T10:09:03.477Z,8.506104
2019-04-20T10:10:17.860Z,8.506077
2019-04-20T10:11:17.264Z,8.506131
2019-04-20T10:12:21.727Z,8.506020
2019-04-20T10:13:25.312Z,8.506082
2019-04-20T10:14:28.882Z,8.506070
2019-04-20T10:15:32.990Z,8.505989
2019-04-20T10:16:37.739Z,8.505947
2019-04-20T10:17:41.481Z,8.505996
2019-04-20T10:18:48.113Z,8.505993
2019-04-20T10:19:53.431Z,8.506010
2019-04-20T10:20:56.280Z,8.505976
2019-04-20T10:22:02.415Z,8.506020
2019-04-20T10:23:06.697Z,8.506004
2019-04-20T10:24:10.528Z,8.506030
2019-04-20T10:25:13.317Z,8.506038
2019-04-20T10:26:16.464Z,8.506055
2019-04-20T10:27:20.570Z,8.506044
2019-04-20T10:28:25.530Z,8.506049
2019-04-20T10:29:28.370Z,8.506085
2019-04-20T10:30:32.466Z,8.506127
2019-04-20T10:31:42.644Z,8.506144
2019-04-20T10:32:47.235Z,8.506213
2019-04-20T10:33:51.445Z,8.506232
2019-04-20T10:34:54.876Z,8.506178
2019-04-20T10:35:59.442Z,8.506235
2019-04-20T10:37:03.749Z,8.506138
2019-04-20T10:38:07.528Z,8.506222
2019-04-20T10:39:10.877Z,8.506170
2019-04-20T10:40:27.973Z,8.506141
2019-04-20T10:41:36.135Z,8.506140
2019-04-20T10:42:30.267Z,8.506080
2019-04-20T10:43:33.354Z,8.506104
2019-04-20T10:44:36.921Z,8.506007
2019-04-20T10:45:41.224Z,8.506008
2019-04-20T10:46:44.929Z,8.506067
2019-04-20T10:47:48.278Z,8.506098
2019-04-20T10:48:53.304Z,8.506049
2019-04-20T10:49:58.887Z,8.506003
2019-04-20T10:51:03.131Z,8.506017
2019-04-20T10:52:07.485Z,8.506145
2019-04-20T10:53:10.343Z,8.506159
2019-04-20T10:54:14.223Z,8.506088
2019-04-20T10:55:18.599Z,8.506129
2019-04-20T10:56:21.443Z,8.505954
2019-04-20T10:57:25.670Z,8.506047
2019-04-20T10:58:29.587Z,8.506080
2019-04-20T10:59:32.389Z,8.506003
2019-04-20T11:00:35.589Z,8.505974
2019-04-20T11:01:38.317Z,8.506043
2019-04-20T11:02:43.940Z,8.506028
2019-04-20T11:03:48.275Z,8.506096
2019-04-20T11:04:52.538Z,8.506089
2019-04-20T11:05:56.415Z,8.506011
2019-04-20T11:07:00.722Z,8.506013
2019-04-20T11:08:04.393Z,8.505962
2019-04-20T11:09:08.745Z,8.505935
2019-04-20T11:10:19.792Z,8.506010
2019-04-20T11:11:25.218Z,8.506069
2019-04-20T11:12:28.469Z,8.506008
2019-04-20T11:13:31.342Z,8.506056
2019-04-20T11:14:37.212Z,8.506029
2019-04-20T11:15:44.427Z,8.506061
2019-04-20T11:16:48.462Z,8.506078
2019-04-20T11:17:51.435Z,8.506108
2019-04-20T11:18:55.497Z,8.506106
2019-04-20T11:19:59.188Z,8.506099
2019-04-20T11:21:03.525Z,8.506099
2019-04-20T11:22:06.316Z,8.506074
2019-04-20T11:23:10.629Z,8.506078
2019-04-20T11:24:14.371Z,8.506067
2019-04-20T11:25:17.345Z,8.506114
2019-04-20T11:26:20.344Z,8.506069
2019-04-20T11:27:23.304Z,8.506062
2019-04-20T11:28:26.326Z,8.506081
2019-04-20T11:29:29.290Z,8.506125
2019-04-20T11:30:32.342Z,8.506105
2019-04-20T11:31:39.513Z,8.506096
2019-04-20T11:32:44.331Z,8.506080
2019-04-20T11:33:48.025Z,8.506043
2019-04-20T11:34:51.325Z,8.506004
2019-04-20T11:35:54.988Z,8.506036
2019-04-20T11:36:59.233Z,8.506040
2019-04-20T11:38:02.946Z,8.506072
2019-04-20T11:39:07.127Z,8.506063
2019-04-20T11:40:10.918Z,8.506050
2019-04-20T11:41:22.753Z,8.506080
2019-04-20T11:42:23.544Z,8.506110
2019-04-20T11:43:26.285Z,8.506064
2019-04-20T11:44:31.457Z,8.506017
2019-04-20T11:45:38.422Z,8.506006
2019-04-20T11:46:42.803Z,8.506057
2019-04-20T11:47:47.400Z,8.506070
2019-04-20T11:48:51.707Z,8.506036
2019-04-20T11:49:55.461Z,8.506054
2019-04-20T11:50:58.353Z,8.506057
2019-04-20T11:52:01.521Z,8.506046
2019-04-20T11:53:05.265Z,8.506011
2019-04-20T11:54:08.377Z,8.506067
2019-04-20T11:55:12.519Z,8.506115
2019-04-20T11:56:23.806Z,8.506123
2019-04-20T11:57:23.313Z,8.506052
2019-04-20T11:58:26.306Z,8.506119
2019-04-20T11:59:30.346Z,8.506114
2019-04-20T12:00:34.290Z,8.506045
2019-04-20T12:01:47.651Z,8.506097
2019-04-20T12:02:53.560Z,8.506155
2019-04-20T12:04:04.110Z,8.506161
2019-04-20T12:05:17.357Z,8.506080
2019-04-20T12:06:13.306Z,8.506092
2019-04-20T12:07:19.223Z,8.506120
2019-04-20T12:08:22.941Z,8.506208
2019-04-20T12:09:26.342Z,8.506209
2019-04-20T12:10:30.049Z,8.506137
2019-04-20T12:11:47.533Z,8.506175
2019-04-20T12:12:47.293Z,8.506138
2019-04-20T12:13:50.307Z,8.506117
2019-04-20T12:14:54.671Z,8.506043
2019-04-20T12:15:59.360Z,8.506062
2019-04-20T12:17:03.672Z,8.506088
2019-04-20T12:18:07.583Z,8.506100
2019-04-20T12:19:10.553Z,8.506095
2019-04-20T12:20:14.533Z,8.506079
2019-04-20T12:21:17.286Z,8.506017
2019-04-20T12:22:21.506Z,8.506090
2019-04-20T12:23:24.528Z,8.506052
2019-04-20T12:24:27.310Z,8.506056
2019-04-20T12:25:34.173Z,8.506021
2019-04-20T12:26:38.681Z,8.506018
2019-04-20T12:27:48.806Z,8.506070
2019-04-20T12:28:49.686Z,8.506059
2019-04-20T12:29:52.277Z,8.506091
2019-04-20T12:31:03.053Z,8.505993
2019-04-20T12:32:05.431Z,8.506013
2019-04-20T12:33:11.501Z,8.505975
2019-04-20T12:34:14.317Z,8.506004
2019-04-20T12:35:18.163Z,8.505993
2019-04-20T12:36:21.319Z,8.506054
2019-04-20T12:37:25.068Z,8.506156
2019-04-20T12:38:28.374Z,8.506105
2019-04-20T12:39:31.308Z,8.506124
2019-04-20T12:40:35.417Z,8.506111
2019-04-20T12:41:45.345Z,8.506106
2019-04-20T12:42:46.635Z,8.506087
2019-04-20T12:43:49.815Z,8.506137
2019-04-20T12:44:53.427Z,8.506209
2019-04-20T12:45:55.853Z,8.506112
2019-04-20T12:46:59.642Z,8.506106
2019-04-20T12:48:03.773Z,8.506106
2019-04-20T12:49:07.671Z,8.506075
2019-04-20T12:50:11.872Z,8.506071
2019-04-20T12:51:15.583Z,8.506099
2019-04-20T12:52:18.583Z,8.506172
2019-04-20T12:53:22.344Z,8.506114
2019-04-20T12:54:25.326Z,8.506116
2019-04-20T12:55:28.401Z,8.506068
2019-04-20T12:56:32.663Z,8.506058
2019-04-20T12:57:36.552Z,8.506108
2019-04-20T12:58:42.968Z,8.506106
2019-04-20T12:59:48.712Z,8.506066
2019-04-20T13:00:52.429Z,8.506061
2019-04-20T13:01:55.490Z,8.506060
2019-04-20T13:02:59.150Z,8.505966
2019-04-20T13:04:04.499Z,8.506073
2019-04-20T13:05:09.427Z,8.506060
2019-04-20T13:06:12.276Z,8.506104
2019-04-20T13:07:15.627Z,8.506099
2019-04-20T13:08:29.595Z,8.506179
2019-04-20T13:09:26.397Z,8.506127
2019-04-20T13:10:29.612Z,8.506127
2019-04-20T13:11:44.353Z,8.506305
2019-04-20T13:12:40.679Z,8.506130
2019-04-20T13:13:44.339Z,8.506151
2019-04-20T13:14:48.443Z,8.506070
2019-04-20T13:15:52.149Z,8.505960
2019-04-20T13:16:56.825Z,8.505988
2019-04-20T13:18:01.245Z,8.505981
2019-04-20T13:19:05.608Z,8.505962
2019-04-20T13:20:08.307Z,8.505918
2019-04-20T13:21:11.349Z,8.505952
2019-04-20T13:22:14.839Z,8.506021
2019-04-20T13:23:20.144Z,8.506006
2019-04-20T13:24:23.324Z,8.506001
2019-04-20T13:25:26.380Z,8.505975
2019-04-20T13:26:29.329Z,8.506005
2019-04-20T13:27:32.304Z,8.505990
2019-04-20T13:28:35.310Z,8.505980
2019-04-20T13:29:38.395Z,8.505999